sensor_id;sensor_type;location;lat;lon;timestamp;temperature;humidity
69598;SHT31;56802;51.184;-115.558;2022-08-24T00:02:08;20.00;58.88
69598;SHT31;56802;51.184;-115.558;2022-08-24T00:04:38;19.97;58.64
69598;SHT31;56802;51.184;-115.558;2022-08-24T00:07:12;19.93;58.33
69598;SHT31;56802;51.184;-115.558;2022-08-24T00:09:54;19.91;58.78
69598;SHT31;56802;51.184;-115.558;2022-08-24T00:12:24;19.90;59.37
69598;SHT31;56802;51.184;-115.558;2022-08-24T00:14:53;19.83;59.69
69598;SHT31;56802;51.184;-115.558;2022-08-24T00:17:23;19.81;60.07
69598;SHT31;56802;51.184;-115.558;2022-08-24T00:19:53;19.75;60.08
69598;SHT31;56802;51.184;-115.558;2022-08-24T00:22:22;19.68;60.14
69598;SHT31;56802;51.184;-115.558;2022-08-24T00:24:52;19.61;60.59
69598;SHT31;56802;51.184;-115.558;2022-08-24T00:27:21;19.50;60.61
69598;SHT31;56802;51.184;-115.558;2022-08-24T00:29:51;19.41;60.75
69598;SHT31;56802;51.184;-115.558;2022-08-24T00:32:20;19.32;61.21
69598;SHT31;56802;51.184;-115.558;2022-08-24T00:34:49;19.27;60.94
69598;SHT31;56802;51.184;-115.558;2022-08-24T00:37:25;19.23;60.95
69598;SHT31;56802;51.184;-115.558;2022-08-24T00:39:56;19.19;60.61
69598;SHT31;56802;51.184;-115.558;2022-08-24T00:42:26;19.15;61.14
69598;SHT31;56802;51.184;-115.558;2022-08-24T00:44:56;19.14;61.03
69598;SHT31;56802;51.184;-115.558;2022-08-24T00:47:27;19.12;61.30
69598;SHT31;56802;51.184;-115.558;2022-08-24T00:50:43;19.05;61.35
69598;SHT31;56802;51.184;-115.558;2022-08-24T00:53:39;19.00;61.68
69598;SHT31;56802;51.184;-115.558;2022-08-24T00:56:16;18.95;61.61
69598;SHT31;56802;51.184;-115.558;2022-08-24T00:59:01;18.89;62.06
69598;SHT31;56802;51.184;-115.558;2022-08-24T01:01:39;18.83;61.98
69598;SHT31;56802;51.184;-115.558;2022-08-24T01:04:15;18.75;62.52
69598;SHT31;56802;51.184;-115.558;2022-08-24T01:06:56;18.68;62.75
69598;SHT31;56802;51.184;-115.558;2022-08-24T01:09:25;18.67;63.21
69598;SHT31;56802;51.184;-115.558;2022-08-24T01:11:54;18.69;62.88
69598;SHT31;56802;51.184;-115.558;2022-08-24T01:14:25;18.70;62.87
69598;SHT31;56802;51.184;-115.558;2022-08-24T01:16:55;18.66;62.79
69598;SHT31;56802;51.184;-115.558;2022-08-24T01:19:44;18.56;63.18
69598;SHT31;56802;51.184;-115.558;2022-08-24T01:22:29;18.51;63.19
69598;SHT31;56802;51.184;-115.558;2022-08-24T01:25:27;18.47;63.50
69598;SHT31;56802;51.184;-115.558;2022-08-24T01:28:01;18.45;63.54
69598;SHT31;56802;51.184;-115.558;2022-08-24T01:30:37;18.38;63.44
69598;SHT31;56802;51.184;-115.558;2022-08-24T01:33:07;18.30;64.39
69598;SHT31;56802;51.184;-115.558;2022-08-24T01:35:48;18.27;65.29
69598;SHT31;56802;51.184;-115.558;2022-08-24T01:38:21;18.27;66.59
69598;SHT31;56802;51.184;-115.558;2022-08-24T01:40:55;18.24;66.84
69598;SHT31;56802;51.184;-115.558;2022-08-24T01:43:29;18.12;66.48
69598;SHT31;56802;51.184;-115.558;2022-08-24T01:46:03;18.09;67.13
69598;SHT31;56802;51.184;-115.558;2022-08-24T01:48:32;18.05;66.61
69598;SHT31;56802;51.184;-115.558;2022-08-24T01:51:02;18.09;66.61
69598;SHT31;56802;51.184;-115.558;2022-08-24T01:53:31;18.13;66.65
69598;SHT31;56802;51.184;-115.558;2022-08-24T01:56:01;18.12;66.35
69598;SHT31;56802;51.184;-115.558;2022-08-24T01:58:31;18.09;66.88
69598;SHT31;56802;51.184;-115.558;2022-08-24T02:01:01;18.06;66.67
69598;SHT31;56802;51.184;-115.558;2022-08-24T02:03:30;18.02;66.30
69598;SHT31;56802;51.184;-115.558;2022-08-24T02:06:00;18.00;66.38
69598;SHT31;56802;51.184;-115.558;2022-08-24T02:08:31;17.96;66.48
69598;SHT31;56802;51.184;-115.558;2022-08-24T02:11:06;17.94;66.72
69598;SHT31;56802;51.184;-115.558;2022-08-24T02:13:38;17.88;66.65
69598;SHT31;56802;51.184;-115.558;2022-08-24T02:16:09;17.78;66.86
69598;SHT31;56802;51.184;-115.558;2022-08-24T02:18:39;17.67;66.97
69598;SHT31;56802;51.184;-115.558;2022-08-24T02:21:09;17.59;67.26
69598;SHT31;56802;51.184;-115.558;2022-08-24T02:23:40;17.55;67.60
69598;SHT31;56802;51.184;-115.558;2022-08-24T02:26:10;17.56;67.90
69598;SHT31;56802;51.184;-115.558;2022-08-24T02:28:40;17.58;67.81
69598;SHT31;56802;51.184;-115.558;2022-08-24T02:31:10;17.57;67.57
69598;SHT31;56802;51.184;-115.558;2022-08-24T02:33:41;17.56;67.55
69598;SHT31;56802;51.184;-115.558;2022-08-24T02:36:11;17.56;67.67
69598;SHT31;56802;51.184;-115.558;2022-08-24T02:38:52;17.57;67.78
69598;SHT31;56802;51.184;-115.558;2022-08-24T02:41:23;17.54;67.72
69598;SHT31;56802;51.184;-115.558;2022-08-24T02:43:54;17.51;67.96
69598;SHT31;56802;51.184;-115.558;2022-08-24T02:46:25;17.47;68.20
69598;SHT31;56802;51.184;-115.558;2022-08-24T02:48:56;17.38;68.20
69598;SHT31;56802;51.184;-115.558;2022-08-24T02:51:38;17.30;68.45
69598;SHT31;56802;51.184;-115.558;2022-08-24T02:54:12;17.23;68.81
69598;SHT31;56802;51.184;-115.558;2022-08-24T02:56:46;17.19;69.10
69598;SHT31;56802;51.184;-115.558;2022-08-24T02:59:15;17.16;69.04
69598;SHT31;56802;51.184;-115.558;2022-08-24T03:01:45;17.11;69.37
69598;SHT31;56802;51.184;-115.558;2022-08-24T03:04:16;17.06;69.46
69598;SHT31;56802;51.184;-115.558;2022-08-24T03:06:47;17.03;69.48
69598;SHT31;56802;51.184;-115.558;2022-08-24T03:09:17;17.02;69.63
69598;SHT31;56802;51.184;-115.558;2022-08-24T03:11:49;16.95;69.69
69598;SHT31;56802;51.184;-115.558;2022-08-24T03:14:18;16.91;69.79
69598;SHT31;56802;51.184;-115.558;2022-08-24T03:16:48;16.86;70.02
69598;SHT31;56802;51.184;-115.558;2022-08-24T03:19:17;16.84;70.02
69598;SHT31;56802;51.184;-115.558;2022-08-24T03:21:48;16.80;70.27
69598;SHT31;56802;51.184;-115.558;2022-08-24T03:24:18;16.81;70.45
69598;SHT31;56802;51.184;-115.558;2022-08-24T03:26:48;16.82;70.41
69598;SHT31;56802;51.184;-115.558;2022-08-24T03:29:17;16.78;70.59
69598;SHT31;56802;51.184;-115.558;2022-08-24T03:31:49;16.73;70.64
69598;SHT31;56802;51.184;-115.558;2022-08-24T03:34:21;16.74;70.46
69598;SHT31;56802;51.184;-115.558;2022-08-24T03:36:51;16.74;70.53
69598;SHT31;56802;51.184;-115.558;2022-08-24T03:39:20;16.74;70.39
69598;SHT31;56802;51.184;-115.558;2022-08-24T03:41:50;16.74;70.47
69598;SHT31;56802;51.184;-115.558;2022-08-24T03:44:20;16.72;70.60
69598;SHT31;56802;51.184;-115.558;2022-08-24T03:46:52;16.69;70.87
69598;SHT31;56802;51.184;-115.558;2022-08-24T03:49:21;16.67;70.63
69598;SHT31;56802;51.184;-115.558;2022-08-24T03:51:51;16.69;70.38
69598;SHT31;56802;51.184;-115.558;2022-08-24T03:54:20;16.71;70.07
69598;SHT31;56802;51.184;-115.558;2022-08-24T03:56:52;16.70;70.09
69598;SHT31;56802;51.184;-115.558;2022-08-24T03:59:21;16.67;70.05
69598;SHT31;56802;51.184;-115.558;2022-08-24T04:01:50;16.64;70.33
69598;SHT31;56802;51.184;-115.558;2022-08-24T04:04:23;16.58;70.50
69598;SHT31;56802;51.184;-115.558;2022-08-24T04:06:53;16.57;70.59
69598;SHT31;56802;51.184;-115.558;2022-08-24T04:09:23;16.58;70.38
69598;SHT31;56802;51.184;-115.558;2022-08-24T04:11:55;16.58;70.49
69598;SHT31;56802;51.184;-115.558;2022-08-24T04:14:27;16.59;70.83
69598;SHT31;56802;51.184;-115.558;2022-08-24T04:16:56;16.59;70.95
69598;SHT31;56802;51.184;-115.558;2022-08-24T04:19:26;16.58;70.99
69598;SHT31;56802;51.184;-115.558;2022-08-24T04:21:55;16.57;71.02
69598;SHT31;56802;51.184;-115.558;2022-08-24T04:24:26;16.57;71.21
69598;SHT31;56802;51.184;-115.558;2022-08-24T04:26:56;16.56;71.58
69598;SHT31;56802;51.184;-115.558;2022-08-24T04:29:25;16.51;71.81
69598;SHT31;56802;51.184;-115.558;2022-08-24T04:31:54;16.48;71.98
69598;SHT31;56802;51.184;-115.558;2022-08-24T04:34:25;16.44;71.92
69598;SHT31;56802;51.184;-115.558;2022-08-24T04:36:55;16.42;71.84
69598;SHT31;56802;51.184;-115.558;2022-08-24T04:39:24;16.38;72.10
69598;SHT31;56802;51.184;-115.558;2022-08-24T04:41:56;16.38;72.27
69598;SHT31;56802;51.184;-115.558;2022-08-24T04:44:29;16.37;72.25
69598;SHT31;56802;51.184;-115.558;2022-08-24T04:46:58;16.38;72.12
69598;SHT31;56802;51.184;-115.558;2022-08-24T04:49:28;16.36;72.09
69598;SHT31;56802;51.184;-115.558;2022-08-24T04:51:58;16.34;72.16
69598;SHT31;56802;51.184;-115.558;2022-08-24T04:54:27;16.31;72.19
69598;SHT31;56802;51.184;-115.558;2022-08-24T04:56:57;16.33;72.17
69598;SHT31;56802;51.184;-115.558;2022-08-24T04:59:26;16.30;72.06
69598;SHT31;56802;51.184;-115.558;2022-08-24T05:01:56;16.25;72.44
69598;SHT31;56802;51.184;-115.558;2022-08-24T05:04:25;16.26;72.63
69598;SHT31;56802;51.184;-115.558;2022-08-24T05:06:56;16.28;72.64
69598;SHT31;56802;51.184;-115.558;2022-08-24T05:09:26;16.28;72.12
69598;SHT31;56802;51.184;-115.558;2022-08-24T05:11:57;16.29;71.43
69598;SHT31;56802;51.184;-115.558;2022-08-24T05:14:26;16.31;70.92
69598;SHT31;56802;51.184;-115.558;2022-08-24T05:16:55;16.33;71.03
69598;SHT31;56802;51.184;-115.558;2022-08-24T05:19:28;16.35;71.20
69598;SHT31;56802;51.184;-115.558;2022-08-24T05:21:58;16.34;71.40
69598;SHT31;56802;51.184;-115.558;2022-08-24T05:24:27;16.33;71.07
69598;SHT31;56802;51.184;-115.558;2022-08-24T05:26:56;16.35;70.69
69598;SHT31;56802;51.184;-115.558;2022-08-24T05:29:27;16.40;70.68
69598;SHT31;56802;51.184;-115.558;2022-08-24T05:32:00;16.42;70.61
69598;SHT31;56802;51.184;-115.558;2022-08-24T05:34:30;16.42;70.43
69598;SHT31;56802;51.184;-115.558;2022-08-24T05:36:59;16.44;70.35
69598;SHT31;56802;51.184;-115.558;2022-08-24T05:39:28;16.46;70.78
69598;SHT31;56802;51.184;-115.558;2022-08-24T05:41:58;16.49;70.85
69598;SHT31;56802;51.184;-115.558;2022-08-24T05:44:28;16.51;70.90
69598;SHT31;56802;51.184;-115.558;2022-08-24T05:46:58;16.52;70.97
69598;SHT31;56802;51.184;-115.558;2022-08-24T05:49:29;16.53;70.94
69598;SHT31;56802;51.184;-115.558;2022-08-24T05:51:58;16.51;70.93
69598;SHT31;56802;51.184;-115.558;2022-08-24T05:54:28;16.53;70.99
69598;SHT31;56802;51.184;-115.558;2022-08-24T05:56:57;16.53;70.77
69598;SHT31;56802;51.184;-115.558;2022-08-24T05:59:31;16.53;70.85
69598;SHT31;56802;51.184;-115.558;2022-08-24T06:02:00;16.53;70.79
69598;SHT31;56802;51.184;-115.558;2022-08-24T06:04:30;16.52;70.66
69598;SHT31;56802;51.184;-115.558;2022-08-24T06:06:59;16.53;70.71
69598;SHT31;56802;51.184;-115.558;2022-08-24T06:09:29;16.50;70.84
69598;SHT31;56802;51.184;-115.558;2022-08-24T06:11:59;16.47;70.92
69598;SHT31;56802;51.184;-115.558;2022-08-24T06:14:28;16.42;71.34
69598;SHT31;56802;51.184;-115.558;2022-08-24T06:16:57;16.35;71.47
69598;SHT31;56802;51.184;-115.558;2022-08-24T06:19:28;16.28;71.79
69598;SHT31;56802;51.184;-115.558;2022-08-24T06:21:58;16.26;72.17
69598;SHT31;56802;51.184;-115.558;2022-08-24T06:24:29;16.29;72.25
69598;SHT31;56802;51.184;-115.558;2022-08-24T06:27:17;16.30;72.22
69598;SHT31;56802;51.184;-115.558;2022-08-24T06:30:08;16.28;72.28
69598;SHT31;56802;51.184;-115.558;2022-08-24T06:32:38;16.29;72.25
69598;SHT31;56802;51.184;-115.558;2022-08-24T06:35:10;16.23;72.37
69598;SHT31;56802;51.184;-115.558;2022-08-24T06:37:39;16.21;72.30
69598;SHT31;56802;51.184;-115.558;2022-08-24T06:40:10;16.20;72.14
69598;SHT31;56802;51.184;-115.558;2022-08-24T06:42:39;16.18;71.99
69598;SHT31;56802;51.184;-115.558;2022-08-24T06:45:09;16.11;72.11
69598;SHT31;56802;51.184;-115.558;2022-08-24T06:47:40;16.04;72.14
69598;SHT31;56802;51.184;-115.558;2022-08-24T06:50:09;16.05;72.15
69598;SHT31;56802;51.184;-115.558;2022-08-24T06:52:43;16.08;72.28
69598;SHT31;56802;51.184;-115.558;2022-08-24T06:55:12;16.08;72.08
69598;SHT31;56802;51.184;-115.558;2022-08-24T06:57:41;16.06;71.97
69598;SHT31;56802;51.184;-115.558;2022-08-24T07:00:17;16.01;71.95
69598;SHT31;56802;51.184;-115.558;2022-08-24T07:02:47;15.98;71.94
69598;SHT31;56802;51.184;-115.558;2022-08-24T07:05:16;15.94;71.98
69598;SHT31;56802;51.184;-115.558;2022-08-24T07:07:46;15.88;72.08
69598;SHT31;56802;51.184;-115.558;2022-08-24T07:10:15;15.85;72.12
69598;SHT31;56802;51.184;-115.558;2022-08-24T07:12:51;15.86;72.20
69598;SHT31;56802;51.184;-115.558;2022-08-24T07:15:20;15.85;72.17
69598;SHT31;56802;51.184;-115.558;2022-08-24T07:17:49;15.84;72.25
69598;SHT31;56802;51.184;-115.558;2022-08-24T07:20:20;15.84;72.56
69598;SHT31;56802;51.184;-115.558;2022-08-24T07:22:51;15.81;72.75
69598;SHT31;56802;51.184;-115.558;2022-08-24T07:25:21;15.81;73.14
69598;SHT31;56802;51.184;-115.558;2022-08-24T07:27:51;15.83;73.03
69598;SHT31;56802;51.184;-115.558;2022-08-24T07:30:20;15.84;73.14
69598;SHT31;56802;51.184;-115.558;2022-08-24T07:32:54;15.86;73.15
69598;SHT31;56802;51.184;-115.558;2022-08-24T07:35:26;15.90;72.83
69598;SHT31;56802;51.184;-115.558;2022-08-24T07:37:59;15.94;72.81
69598;SHT31;56802;51.184;-115.558;2022-08-24T07:40:30;15.93;72.70
69598;SHT31;56802;51.184;-115.558;2022-08-24T07:43:20;15.94;72.61
69598;SHT31;56802;51.184;-115.558;2022-08-24T07:45:51;15.86;72.91
69598;SHT31;56802;51.184;-115.558;2022-08-24T07:48:21;15.80;72.90
69598;SHT31;56802;51.184;-115.558;2022-08-24T07:50:50;15.80;72.99
69598;SHT31;56802;51.184;-115.558;2022-08-24T07:53:20;15.80;73.01
69598;SHT31;56802;51.184;-115.558;2022-08-24T07:55:58;15.81;72.74
69598;SHT31;56802;51.184;-115.558;2022-08-24T07:58:27;15.81;72.66
69598;SHT31;56802;51.184;-115.558;2022-08-24T08:00:57;15.82;72.55
69598;SHT31;56802;51.184;-115.558;2022-08-24T08:03:27;15.88;72.64
69598;SHT31;56802;51.184;-115.558;2022-08-24T08:05:59;15.92;72.70
69598;SHT31;56802;51.184;-115.558;2022-08-24T08:08:38;15.96;72.64
69598;SHT31;56802;51.184;-115.558;2022-08-24T08:11:09;15.97;72.49
69598;SHT31;56802;51.184;-115.558;2022-08-24T08:13:40;15.97;72.50
69598;SHT31;56802;51.184;-115.558;2022-08-24T08:16:10;15.96;72.67
69598;SHT31;56802;51.184;-115.558;2022-08-24T08:18:40;15.95;72.63
69598;SHT31;56802;51.184;-115.558;2022-08-24T08:21:17;15.90;72.66
69598;SHT31;56802;51.184;-115.558;2022-08-24T08:24:05;15.86;72.82
69598;SHT31;56802;51.184;-115.558;2022-08-24T08:26:47;15.82;72.73
69598;SHT31;56802;51.184;-115.558;2022-08-24T08:29:21;15.80;72.86
69598;SHT31;56802;51.184;-115.558;2022-08-24T08:31:51;15.81;73.05
69598;SHT31;56802;51.184;-115.558;2022-08-24T08:34:21;15.79;73.26
69598;SHT31;56802;51.184;-115.558;2022-08-24T08:36:52;15.76;73.29
69598;SHT31;56802;51.184;-115.558;2022-08-24T08:39:22;15.71;73.49
69598;SHT31;56802;51.184;-115.558;2022-08-24T08:44:55;15.70;73.73
69598;SHT31;56802;51.184;-115.558;2022-08-24T09:00:57;15.67;74.05
69598;SHT31;56802;51.184;-115.558;2022-08-24T09:10:13;15.65;74.35
69598;SHT31;56802;51.184;-115.558;2022-08-24T09:22:14;15.35;75.21
69598;SHT31;56802;51.184;-115.558;2022-08-24T09:30:12;15.41;75.49
69598;SHT31;56802;51.184;-115.558;2022-08-24T09:57:24;15.12;75.77
69598;SHT31;56802;51.184;-115.558;2022-08-24T10:09:33;15.26;75.82
69598;SHT31;56802;51.184;-115.558;2022-08-24T10:15:49;15.29;75.60
69598;SHT31;56802;51.184;-115.558;2022-08-24T10:21:20;15.32;75.50
69598;SHT31;56802;51.184;-115.558;2022-08-24T10:27:22;15.40;75.38
69598;SHT31;56802;51.184;-115.558;2022-08-24T10:30:03;15.42;75.34
69598;SHT31;56802;51.184;-115.558;2022-08-24T10:33:03;15.39;75.58
69598;SHT31;56802;51.184;-115.558;2022-08-24T10:36:06;15.32;75.99
69598;SHT31;56802;51.184;-115.558;2022-08-24T10:54:51;15.17;76.41
69598;SHT31;56802;51.184;-115.558;2022-08-24T10:57:45;15.12;76.56
69598;SHT31;56802;51.184;-115.558;2022-08-24T11:00:37;15.05;76.87
69598;SHT31;56802;51.184;-115.558;2022-08-24T11:03:12;14.92;77.18
69598;SHT31;56802;51.184;-115.558;2022-08-24T11:05:55;14.89;77.26
69598;SHT31;56802;51.184;-115.558;2022-08-24T11:08:25;14.90;77.25
69598;SHT31;56802;51.184;-115.558;2022-08-24T11:11:07;14.91;77.22
69598;SHT31;56802;51.184;-115.558;2022-08-24T11:13:51;14.93;77.01
69598;SHT31;56802;51.184;-115.558;2022-08-24T11:16:39;14.96;77.06
69598;SHT31;56802;51.184;-115.558;2022-08-24T11:21:55;15.06;76.89
69598;SHT31;56802;51.184;-115.558;2022-08-24T11:24:47;15.11;76.74
69598;SHT31;56802;51.184;-115.558;2022-08-24T11:27:33;15.12;76.65
69598;SHT31;56802;51.184;-115.558;2022-08-24T11:32:46;15.16;77.17
69598;SHT31;56802;51.184;-115.558;2022-08-24T11:40:51;15.15;78.11
69598;SHT31;56802;51.184;-115.558;2022-08-24T11:46:51;15.09;78.51
69598;SHT31;56802;51.184;-115.558;2022-08-24T11:49:50;14.99;78.64
69598;SHT31;56802;51.184;-115.558;2022-08-24T11:53:01;14.94;79.13
69598;SHT31;56802;51.184;-115.558;2022-08-24T11:55:41;14.97;79.26
69598;SHT31;56802;51.184;-115.558;2022-08-24T11:58:54;14.97;79.32
69598;SHT31;56802;51.184;-115.558;2022-08-24T12:01:31;14.94;79.28
69598;SHT31;56802;51.184;-115.558;2022-08-24T12:04:24;14.91;79.24
69598;SHT31;56802;51.184;-115.558;2022-08-24T12:16:16;14.83;79.98
69598;SHT31;56802;51.184;-115.558;2022-08-24T12:22:06;14.76;80.28
69598;SHT31;56802;51.184;-115.558;2022-08-24T12:24:42;14.78;79.89
69598;SHT31;56802;51.184;-115.558;2022-08-24T12:30:11;14.90;79.79
69598;SHT31;56802;51.184;-115.558;2022-08-24T12:32:47;14.93;79.81
69598;SHT31;56802;51.184;-115.558;2022-08-24T12:43:34;14.83;79.90
69598;SHT31;56802;51.184;-115.558;2022-08-24T12:46:15;14.84;80.06
69598;SHT31;56802;51.184;-115.558;2022-08-24T12:48:56;14.85;80.04
69598;SHT31;56802;51.184;-115.558;2022-08-24T13:01:21;14.85;79.99
69598;SHT31;56802;51.184;-115.558;2022-08-24T13:31:00;14.93;80.39
69598;SHT31;56802;51.184;-115.558;2022-08-24T13:33:48;15.00;80.32
69598;SHT31;56802;51.184;-115.558;2022-08-24T13:39:40;15.17;79.90
69598;SHT31;56802;51.184;-115.558;2022-08-24T13:48:46;15.26;79.72
69598;SHT31;56802;51.184;-115.558;2022-08-24T13:55:25;15.36;79.58
69598;SHT31;56802;51.184;-115.558;2022-08-24T13:58:21;15.44;79.58
69598;SHT31;56802;51.184;-115.558;2022-08-24T14:04:15;15.53;79.11
69598;SHT31;56802;51.184;-115.558;2022-08-24T14:06:50;15.54;78.90
69598;SHT31;56802;51.184;-115.558;2022-08-24T14:18:02;15.59;78.43
69598;SHT31;56802;51.184;-115.558;2022-08-24T14:21:12;15.48;78.47
69598;SHT31;56802;51.184;-115.558;2022-08-24T14:23:50;15.47;78.20
69598;SHT31;56802;51.184;-115.558;2022-08-24T14:55:33;15.88;78.02
69598;SHT31;56802;51.184;-115.558;2022-08-24T14:58:20;16.01;77.75
69598;SHT31;56802;51.184;-115.558;2022-08-24T15:06:54;16.33;76.65
69598;SHT31;56802;51.184;-115.558;2022-08-24T15:09:50;16.46;76.50
69598;SHT31;56802;51.184;-115.558;2022-08-24T15:12:43;16.50;76.09
69598;SHT31;56802;51.184;-115.558;2022-08-24T15:15:30;16.51;75.79
69598;SHT31;56802;51.184;-115.558;2022-08-24T15:30:17;16.88;75.40
69598;SHT31;56802;51.184;-115.558;2022-08-24T15:32:51;16.97;75.09
69598;SHT31;56802;51.184;-115.558;2022-08-24T15:35:48;17.08;75.05
69598;SHT31;56802;51.184;-115.558;2022-08-24T15:38:33;17.18;74.64
69598;SHT31;56802;51.184;-115.558;2022-08-24T15:44:06;17.51;74.39
69598;SHT31;56802;51.184;-115.558;2022-08-24T15:46:50;17.74;74.16
69598;SHT31;56802;51.184;-115.558;2022-08-24T15:49:33;17.92;73.26
69598;SHT31;56802;51.184;-115.558;2022-08-24T15:55:30;18.12;72.12
69598;SHT31;56802;51.184;-115.558;2022-08-24T15:58:46;18.18;71.73
69598;SHT31;56802;51.184;-115.558;2022-08-24T16:03:57;18.20;71.65
69598;SHT31;56802;51.184;-115.558;2022-08-24T16:14:41;18.02;71.23
69598;SHT31;56802;51.184;-115.558;2022-08-24T16:23:21;18.04;71.20
69598;SHT31;56802;51.184;-115.558;2022-08-24T16:37:43;18.28;70.98
69598;SHT31;56802;51.184;-115.558;2022-08-24T16:40:12;18.39;70.59
69598;SHT31;56802;51.184;-115.558;2022-08-24T16:42:44;18.45;70.26
69598;SHT31;56802;51.184;-115.558;2022-08-24T16:45:19;18.49;70.27
69598;SHT31;56802;51.184;-115.558;2022-08-24T16:47:49;18.57;69.98
69598;SHT31;56802;51.184;-115.558;2022-08-24T16:50:19;18.59;69.60
69598;SHT31;56802;51.184;-115.558;2022-08-24T16:52:53;18.64;69.39
69598;SHT31;56802;51.184;-115.558;2022-08-24T16:55:22;18.70;69.05
69598;SHT31;56802;51.184;-115.558;2022-08-24T16:57:54;18.84;69.06
69598;SHT31;56802;51.184;-115.558;2022-08-24T17:00:24;18.87;68.31
69598;SHT31;56802;51.184;-115.558;2022-08-24T17:02:53;18.86;68.10
69598;SHT31;56802;51.184;-115.558;2022-08-24T17:05:23;19.00;68.75
69598;SHT31;56802;51.184;-115.558;2022-08-24T17:07:52;19.19;68.02
69598;SHT31;56802;51.184;-115.558;2022-08-24T17:10:22;19.33;67.61
69598;SHT31;56802;51.184;-115.558;2022-08-24T17:12:51;19.45;67.77
69598;SHT31;56802;51.184;-115.558;2022-08-24T17:15:20;19.55;67.40
69598;SHT31;56802;51.184;-115.558;2022-08-24T17:17:54;19.57;66.38
69598;SHT31;56802;51.184;-115.558;2022-08-24T17:20:29;19.65;66.38
69598;SHT31;56802;51.184;-115.558;2022-08-24T17:22:59;19.74;66.31
69598;SHT31;56802;51.184;-115.558;2022-08-24T17:25:29;19.82;66.39
69598;SHT31;56802;51.184;-115.558;2022-08-24T17:27:59;19.87;66.34
69598;SHT31;56802;51.184;-115.558;2022-08-24T17:30:30;19.93;65.78
69598;SHT31;56802;51.184;-115.558;2022-08-24T17:33:00;19.96;65.16
69598;SHT31;56802;51.184;-115.558;2022-08-24T17:35:30;19.95;64.95
69598;SHT31;56802;51.184;-115.558;2022-08-24T17:37:59;19.95;64.58
69598;SHT31;56802;51.184;-115.558;2022-08-24T17:40:30;19.97;64.33
69598;SHT31;56802;51.184;-115.558;2022-08-24T17:43:00;19.98;64.66
69598;SHT31;56802;51.184;-115.558;2022-08-24T17:45:30;19.97;64.70
69598;SHT31;56802;51.184;-115.558;2022-08-24T17:48:00;19.95;65.08
69598;SHT31;56802;51.184;-115.558;2022-08-24T17:50:30;19.99;65.34
69598;SHT31;56802;51.184;-115.558;2022-08-24T17:53:01;20.05;64.85
69598;SHT31;56802;51.184;-115.558;2022-08-24T17:55:31;20.11;64.96
69598;SHT31;56802;51.184;-115.558;2022-08-24T17:58:00;20.17;65.22
69598;SHT31;56802;51.184;-115.558;2022-08-24T18:00:30;20.20;65.06
69598;SHT31;56802;51.184;-115.558;2022-08-24T18:02:59;20.29;65.24
69598;SHT31;56802;51.184;-115.558;2022-08-24T18:05:29;20.41;65.39
69598;SHT31;56802;51.184;-115.558;2022-08-24T18:08:01;20.49;65.16
69598;SHT31;56802;51.184;-115.558;2022-08-24T18:10:31;20.55;65.00
69598;SHT31;56802;51.184;-115.558;2022-08-24T18:13:01;20.59;64.90
69598;SHT31;56802;51.184;-115.558;2022-08-24T18:15:33;20.61;64.58
69598;SHT31;56802;51.184;-115.558;2022-08-24T18:18:07;20.59;64.65
69598;SHT31;56802;51.184;-115.558;2022-08-24T18:20:38;20.72;64.93
69598;SHT31;56802;51.184;-115.558;2022-08-24T18:23:09;20.88;64.78
69598;SHT31;56802;51.184;-115.558;2022-08-24T18:25:44;21.05;64.28
69598;SHT31;56802;51.184;-115.558;2022-08-24T18:28:18;21.11;61.46
69598;SHT31;56802;51.184;-115.558;2022-08-24T18:30:50;21.09;60.15
69598;SHT31;56802;51.184;-115.558;2022-08-24T18:33:19;21.17;60.21
69598;SHT31;56802;51.184;-115.558;2022-08-24T18:35:48;21.16;59.28
69598;SHT31;56802;51.184;-115.558;2022-08-24T18:38:18;21.19;59.80
69598;SHT31;56802;51.184;-115.558;2022-08-24T18:40:48;21.21;58.86
69598;SHT31;56802;51.184;-115.558;2022-08-24T18:43:19;21.22;58.40
69598;SHT31;56802;51.184;-115.558;2022-08-24T18:45:51;21.24;58.75
69598;SHT31;56802;51.184;-115.558;2022-08-24T18:48:24;21.29;58.60
69598;SHT31;56802;51.184;-115.558;2022-08-24T18:50:53;21.31;58.25
69598;SHT31;56802;51.184;-115.558;2022-08-24T18:53:24;21.32;57.90
69598;SHT31;56802;51.184;-115.558;2022-08-24T18:55:54;21.32;56.99
69598;SHT31;56802;51.184;-115.558;2022-08-24T18:58:30;21.30;56.73
69598;SHT31;56802;51.184;-115.558;2022-08-24T19:00:59;21.24;55.57
69598;SHT31;56802;51.184;-115.558;2022-08-24T19:03:31;21.25;55.88
69598;SHT31;56802;51.184;-115.558;2022-08-24T19:06:00;21.32;56.69
69598;SHT31;56802;51.184;-115.558;2022-08-24T19:08:30;21.39;56.35
69598;SHT31;56802;51.184;-115.558;2022-08-24T19:10:59;21.42;55.69
69598;SHT31;56802;51.184;-115.558;2022-08-24T19:13:28;21.48;55.76
69598;SHT31;56802;51.184;-115.558;2022-08-24T19:15:58;21.46;55.17
69598;SHT31;56802;51.184;-115.558;2022-08-24T19:18:27;21.42;55.40
69598;SHT31;56802;51.184;-115.558;2022-08-24T19:20:57;21.35;54.18
69598;SHT31;56802;51.184;-115.558;2022-08-24T19:23:27;21.30;53.52
69598;SHT31;56802;51.184;-115.558;2022-08-24T19:26:01;21.29;54.08
69598;SHT31;56802;51.184;-115.558;2022-08-24T19:28:31;21.33;53.90
69598;SHT31;56802;51.184;-115.558;2022-08-24T19:31:02;21.38;53.81
69598;SHT31;56802;51.184;-115.558;2022-08-24T19:33:40;21.47;54.08
69598;SHT31;56802;51.184;-115.558;2022-08-24T19:36:15;21.56;52.59
69598;SHT31;56802;51.184;-115.558;2022-08-24T19:38:45;21.59;52.25
69598;SHT31;56802;51.184;-115.558;2022-08-24T19:41:15;21.63;51.79
69598;SHT31;56802;51.184;-115.558;2022-08-24T19:43:46;21.66;50.82
69598;SHT31;56802;51.184;-115.558;2022-08-24T19:46:53;21.70;51.64
69598;SHT31;56802;51.184;-115.558;2022-08-24T19:49:24;21.75;50.70
69598;SHT31;56802;51.184;-115.558;2022-08-24T19:51:54;21.71;51.27
69598;SHT31;56802;51.184;-115.558;2022-08-24T19:54:24;21.76;51.73
69598;SHT31;56802;51.184;-115.558;2022-08-24T19:56:54;21.80;51.59
69598;SHT31;56802;51.184;-115.558;2022-08-24T19:59:30;21.82;52.11
69598;SHT31;56802;51.184;-115.558;2022-08-24T20:02:05;21.84;51.44
69598;SHT31;56802;51.184;-115.558;2022-08-24T20:04:35;21.71;50.93
69598;SHT31;56802;51.184;-115.558;2022-08-24T20:07:04;21.65;51.00
69598;SHT31;56802;51.184;-115.558;2022-08-24T20:09:41;21.60;50.39